LiveATC.Net - Listen to live air traffic control over the Internet!


ICAO: ESMS  IATA: MMX   Airport: Malmo Airport
City: Svedala
Country: Sweden   Continent: Europe
ESMS METAR Weather: ESMS 181950Z 14008KT 2100 DZ OVC003 03/03 Q1023 R17/25//95
ESMS Flight Activity (FlightAware)

ESMS Tower
Feed Status: UP   Listeners: 2
Listen in your browser - HTML5 player (in browser, HTML5)
Listen in your browser - requires Flash (in browser, requires Flash)
Click here to listen with your own player (launches your MP3 player)
ESMS Tower Audio Archives
FacilityFrequency
Malmo Tower118.800

NOTICE

Unauthorized use prohibited. See LiveATC.net Terms of Service


Find LiveATC Audio Streams


Airport/ARTCC Code

Frequency Search
(e.g., 124.400, 128.75)
Site-wide search
 


Browse LiveATC Feeds
Top 50 LiveATC Feeds
Bad Weather Areas

LiveATC FAQ
Offer a LiveATC Feed
Contact LiveATC.net
Press Inquiries

LiveATC on iPhone
LiveATC on Android

Windows Phone
Windows 8/10

LiveATC Mobile
(Mobile browser)

ATC Audio Archives
Interesting Recordings

LiveATC Forums


Home Page
About LiveATC.net
Make a Donation
Terms of Use
Privacy Policy

Canadian Air Freqs

AIRMETs/SIGMETs

FAA Airport Status
Nat'l Airspace Status
Arrival Demand Charts


Server Software By:
Icecast.org
Liquidsoap